createdAt,value
2023-02-23T00:03:13.685Z,16.40
2023-02-23T00:07:19.244Z,15.60
2023-02-23T00:11:21.433Z,15.70
2023-02-23T00:15:26.135Z,14.70
2023-02-23T00:19:27.597Z,16.40
2023-02-23T00:23:29.146Z,15.10
2023-02-23T00:27:30.613Z,17.40
2023-02-23T00:31:32.212Z,18.10
2023-02-23T00:35:33.751Z,18.70
2023-02-23T00:39:35.180Z,18.40
2023-02-23T00:43:38.569Z,18.60
2023-02-23T00:47:41.833Z,17.40
2023-02-23T00:51:43.910Z,18.40
2023-02-23T00:55:45.310Z,18.10
2023-02-23T00:59:46.806Z,18.00
2023-02-23T01:03:48.826Z,22.90
2023-02-23T01:07:50.436Z,20.80
2023-02-23T01:11:52.153Z,20.70
2023-02-23T01:15:53.715Z,21.30
2023-02-23T01:19:55.476Z,20.30
2023-02-23T01:23:57.637Z,19.70
2023-02-23T01:27:59.182Z,22.10
2023-02-23T01:32:03.271Z,25.30
2023-02-23T01:36:07.240Z,21.70
2023-02-23T01:40:14.497Z,24.00
2023-02-23T01:44:19.392Z,22.40
2023-02-23T01:48:28.295Z,21.10
2023-02-23T01:52:30.250Z,18.00
2023-02-23T01:56:35.856Z,23.00
2023-02-23T02:00:37.491Z,21.20
2023-02-23T02:04:48.098Z,23.60
2023-02-23T02:08:54.275Z,21.80
2023-02-23T02:12:57.166Z,21.60
2023-02-23T02:17:34.777Z,22.60
2023-02-23T02:21:47.155Z,29.40
2023-02-23T02:25:59.162Z,32.50
2023-02-23T02:30:03.784Z,26.40
2023-02-23T02:34:23.512Z,25.40
2023-02-23T02:38:50.484Z,26.30
2023-02-23T02:43:21.115Z,22.80
2023-02-23T02:47:29.493Z,23.20
2023-02-23T02:51:38.976Z,25.80
2023-02-23T02:55:43.326Z,24.20
2023-02-23T03:00:05.890Z,25.70
2023-02-23T03:04:41.425Z,23.30
2023-02-23T03:09:18.536Z,23.90
2023-02-23T03:13:38.286Z,24.70
2023-02-23T03:18:05.768Z,25.10
2023-02-23T03:22:31.731Z,25.50
2023-02-23T03:26:54.688Z,26.70
2023-02-23T03:31:32.417Z,25.30
2023-02-23T03:36:12.546Z,26.70
2023-02-23T03:40:46.089Z,26.70
2023-02-23T03:45:09.027Z,28.00
2023-02-23T03:49:31.745Z,25.90
2023-02-23T03:54:21.348Z,26.30
2023-02-23T03:58:51.505Z,26.10
2023-02-23T04:03:12.451Z,28.70
2023-02-23T04:07:36.699Z,28.10
2023-02-23T04:12:08.971Z,26.30
2023-02-23T04:16:11.515Z,27.20
2023-02-23T04:20:13.865Z,27.50
2023-02-23T04:24:15.811Z,28.50
2023-02-23T04:28:18.621Z,26.50
2023-02-23T04:32:21.441Z,29.20
2023-02-23T04:36:24.232Z,30.40
2023-02-23T04:40:29.185Z,27.40
2023-02-23T04:44:31.448Z,24.50
2023-02-23T04:48:33.660Z,31.50
2023-02-23T04:52:37.079Z,28.10
2023-02-23T04:56:39.927Z,31.30
2023-02-23T05:00:42.085Z,30.60
2023-02-23T05:04:44.964Z,34.20
2023-02-23T05:08:47.168Z,32.90
2023-02-23T05:12:49.069Z,32.20
2023-02-23T05:16:52.161Z,34.10
2023-02-23T05:21:00.631Z,32.20
2023-02-23T05:25:04.179Z,31.60
2023-02-23T05:29:06.475Z,34.60
2023-02-23T05:33:10.208Z,30.00
2023-02-23T05:37:13.871Z,35.70
2023-02-23T05:41:19.994Z,35.10
2023-02-23T05:45:22.508Z,32.40
2023-02-23T05:49:24.331Z,31.00
2023-02-23T05:53:26.508Z,33.20
2023-02-23T05:57:29.880Z,37.70
2023-02-23T06:01:32.353Z,39.20
2023-02-23T06:05:34.471Z,41.80
2023-02-23T06:09:37.506Z,43.10
2023-02-23T06:13:39.782Z,38.20
2023-02-23T06:17:41.530Z,37.50
2023-02-23T06:21:44.442Z,38.00
2023-02-23T06:25:49.743Z,39.00
2023-02-23T06:29:52.321Z,41.40
2023-02-23T06:33:55.089Z,37.20
2023-02-23T06:37:56.859Z,64.20
2023-02-23T06:41:59.875Z,45.40
2023-02-23T06:46:02.396Z,48.10
2023-02-23T06:50:06.248Z,49.70
2023-02-23T06:54:10.679Z,43.70
2023-02-23T06:58:12.470Z,41.90
2023-02-23T07:02:14.583Z,42.40
2023-02-23T07:06:16.786Z,46.20
2023-02-23T07:10:18.487Z,36.00
2023-02-23T07:14:26.421Z,41.30
2023-02-23T07:18:29.380Z,45.40
2023-02-23T07:22:31.206Z,45.40
2023-02-23T07:26:33.395Z,47.20
2023-02-23T07:30:36.134Z,42.10
2023-02-23T07:34:39.098Z,90.30
2023-02-23T07:38:41.779Z,60.60
2023-02-23T07:42:44.678Z,56.50
2023-02-23T07:46:46.806Z,47.80
2023-02-23T07:50:48.956Z,58.90
2023-02-23T07:54:51.082Z,52.40
2023-02-23T07:58:53.290Z,55.60
2023-02-23T08:02:55.567Z,54.60
2023-02-23T08:06:58.051Z,57.20
2023-02-23T08:11:00.781Z,51.30
2023-02-23T08:15:07.704Z,52.60
2023-02-23T08:19:09.680Z,50.30
2023-02-23T08:23:12.139Z,53.00
2023-02-23T08:27:14.460Z,52.50
2023-02-23T08:31:19.034Z,54.20
2023-02-23T08:35:22.318Z,48.10
2023-02-23T08:39:24.413Z,52.50
2023-02-23T08:43:26.615Z,49.10
2023-02-23T08:47:29.480Z,45.70
2023-02-23T08:51:34.339Z,48.30
2023-02-23T08:55:37.754Z,52.30
2023-02-23T08:59:40.690Z,49.70
2023-02-23T09:03:42.569Z,49.70
2023-02-23T09:08:02.663Z,52.40
2023-02-23T09:17:18.186Z,50.00
2023-02-23T09:21:24.585Z,50.90
2023-02-23T09:30:17.434Z,45.70
2023-02-23T09:34:20.220Z,43.80
2023-02-23T09:38:27.104Z,50.40
2023-02-23T09:43:26.594Z,48.70
2023-02-23T09:53:33.772Z,46.40
2023-02-23T09:58:12.139Z,45.70
2023-02-23T10:02:47.250Z,43.10
2023-02-23T10:07:04.202Z,44.20
2023-02-23T10:16:08.604Z,37.50
2023-02-23T10:20:48.503Z,42.00
2023-02-23T10:25:26.544Z,41.70
2023-02-23T10:29:59.980Z,37.30
2023-02-23T10:34:05.874Z,37.70
2023-02-23T10:38:14.542Z,41.90
2023-02-23T10:42:22.386Z,38.30
2023-02-23T10:51:02.316Z,39.10
2023-02-23T10:59:20.554Z,40.60
2023-02-23T11:03:52.368Z,37.30
2023-02-23T11:08:30.730Z,38.50
2023-02-23T11:12:37.533Z,41.60
2023-02-23T11:16:39.157Z,36.20
2023-02-23T11:20:42.558Z,38.30
2023-02-23T11:24:45.694Z,41.50
2023-02-23T11:28:54.431Z,41.50
2023-02-23T11:32:58.708Z,38.80
2023-02-23T11:37:23.561Z,42.10
2023-02-23T11:41:24.985Z,48.00
2023-02-23T11:45:32.930Z,41.70
2023-02-23T11:50:00.478Z,36.90
2023-02-23T11:54:05.769Z,83.20
2023-02-23T11:58:35.163Z,38.80
2023-02-23T12:02:57.956Z,41.40
2023-02-23T12:07:20.879Z,48.60
2023-02-23T12:11:28.169Z,46.20
2023-02-23T12:15:55.568Z,39.70
2023-02-23T12:20:31.410Z,42.70
2023-02-23T12:24:44.174Z,38.70
2023-02-23T12:29:14.757Z,36.30
2023-02-23T12:33:51.762Z,39.90
2023-02-23T12:43:33.311Z,41.50
2023-02-23T12:47:43.736Z,34.60
2023-02-23T12:51:51.119Z,36.80
2023-02-23T12:56:14.357Z,37.60
2023-02-23T13:00:32.901Z,42.00
2023-02-23T13:04:53.009Z,36.30
2023-02-23T13:09:26.050Z,35.40
2023-02-23T13:13:51.112Z,40.30
2023-02-23T13:18:00.983Z,40.00
2023-02-23T13:22:26.279Z,34.70
2023-02-23T13:26:53.311Z,33.50
2023-02-23T13:30:55.973Z,39.10
2023-02-23T13:35:01.793Z,41.60
2023-02-23T13:39:27.251Z,35.00
2023-02-23T13:43:37.425Z,33.20
2023-02-23T13:47:49.493Z,34.20
2023-02-23T13:52:20.400Z,35.20
2023-02-23T13:56:25.664Z,31.30
2023-02-23T14:00:28.116Z,34.90
2023-02-23T14:04:54.842Z,33.60
2023-02-23T14:09:30.727Z,34.90
2023-02-23T14:13:58.800Z,32.70
2023-02-23T14:18:48.811Z,33.20
2023-02-23T14:57:09.444Z,34.10
2023-02-23T15:30:31.105Z,36.00
2023-02-23T15:34:32.832Z,36.20
2023-02-23T15:38:44.317Z,34.80
2023-02-23T15:43:29.263Z,36.90
2023-02-23T15:47:36.444Z,40.60
2023-02-23T15:51:48.380Z,34.80
2023-02-23T15:56:22.222Z,30.10
2023-02-23T16:00:50.694Z,31.10
2023-02-23T16:04:53.051Z,27.60
2023-02-23T16:09:23.463Z,30.90
2023-02-23T16:13:26.628Z,33.40
2023-02-23T16:17:30.353Z,123.20
2023-02-23T16:21:32.634Z,66.60
2023-02-23T16:25:34.753Z,37.90
2023-02-23T16:29:42.310Z,41.80
2023-02-23T16:33:52.236Z,52.30
2023-02-23T16:38:12.009Z,98.20
2023-02-23T16:42:26.207Z,96.30
2023-02-23T16:46:31.700Z,62.10
2023-02-23T16:50:35.702Z,63.40
2023-02-23T16:54:37.338Z,57.60
2023-02-23T16:58:41.949Z,59.00
2023-02-23T17:02:44.590Z,55.60
2023-02-23T17:06:52.207Z,48.60
2023-02-23T17:10:56.844Z,39.00
2023-02-23T17:14:59.355Z,35.50
2023-02-23T17:19:01.370Z,39.60
2023-02-23T17:23:03.500Z,39.60
2023-02-23T17:27:05.495Z,68.90
2023-02-23T17:31:07.783Z,73.80
2023-02-23T17:35:10.228Z,109.60
2023-02-23T17:39:13.553Z,82.00
2023-02-23T17:43:19.535Z,63.70
2023-02-23T17:47:21.512Z,74.80
2023-02-23T17:51:23.793Z,74.10
2023-02-23T17:55:25.679Z,56.20
2023-02-23T17:59:27.997Z,44.90
2023-02-23T18:03:32.700Z,52.10
2023-02-23T18:07:35.157Z,62.00
2023-02-23T18:11:37.187Z,63.90
2023-02-23T18:15:40.361Z,54.60
2023-02-23T18:19:54.304Z,51.70
2023-02-23T18:23:58.544Z,46.10
2023-02-23T18:28:00.569Z,50.00
2023-02-23T18:32:03.917Z,40.40
2023-02-23T18:36:27.555Z,48.10
2023-02-23T18:40:29.336Z,43.50
2023-02-23T18:44:32.895Z,46.50
2023-02-23T18:48:37.237Z,38.90
2023-02-23T18:52:40.290Z,44.70
2023-02-23T18:56:43.379Z,43.00
2023-02-23T19:00:46.105Z,43.50
2023-02-23T19:04:47.723Z,46.70
2023-02-23T19:08:53.459Z,51.30
2023-02-23T19:12:55.690Z,47.80
2023-02-23T19:16:57.485Z,49.60
2023-02-23T19:21:00.202Z,43.00
2023-02-23T19:25:02.286Z,46.70
2023-02-23T19:29:04.508Z,47.20
2023-02-23T19:33:06.650Z,44.80
2023-02-23T19:37:09.238Z,40.10
2023-02-23T19:41:14.831Z,37.30
2023-02-23T19:45:17.784Z,42.40
2023-02-23T19:49:20.920Z,37.10
2023-02-23T19:53:23.207Z,48.10
2023-02-23T19:57:24.862Z,43.90
2023-02-23T20:01:29.466Z,37.20
2023-02-23T20:05:41.652Z,36.90
2023-02-23T20:09:43.838Z,42.10
2023-02-23T20:13:46.764Z,41.30
2023-02-23T20:17:50.626Z,43.30
2023-02-23T20:21:56.976Z,42.90
2023-02-23T20:25:58.970Z,40.50
2023-02-23T20:30:01.648Z,38.60
2023-02-23T20:34:06.267Z,47.80
2023-02-23T20:38:08.121Z,52.40
2023-02-23T20:42:10.562Z,54.90
2023-02-23T20:46:14.203Z,58.60
2023-02-23T20:50:15.987Z,54.70
2023-02-23T20:54:17.833Z,52.90
2023-02-23T20:58:28.883Z,32.80
2023-02-23T21:02:30.946Z,33.60
2023-02-23T21:06:33.351Z,30.10
2023-02-23T21:10:38.044Z,28.30
2023-02-23T21:14:40.450Z,29.10
2023-02-23T21:18:43.494Z,29.20
2023-02-23T21:22:48.661Z,33.40
2023-02-23T21:26:51.032Z,29.80
2023-02-23T21:30:53.151Z,24.00
2023-02-23T21:34:55.060Z,32.80
2023-02-23T21:38:57.082Z,36.60
2023-02-23T21:43:00.650Z,31.00
2023-02-23T21:47:06.448Z,29.20
2023-02-23T21:51:11.395Z,32.50
2023-02-23T21:55:23.586Z,36.30
2023-02-23T21:59:25.478Z,27.20
2023-02-23T22:03:28.722Z,28.80
2023-02-23T22:07:31.826Z,26.40
2023-02-23T22:11:35.246Z,29.70
2023-02-23T22:15:37.970Z,32.60
2023-02-23T22:19:39.998Z,36.00
2023-02-23T22:23:43.287Z,39.50
2023-02-23T22:27:45.512Z,31.80
2023-02-23T22:31:47.396Z,34.60
2023-02-23T22:35:50.237Z,32.10
2023-02-23T22:39:52.153Z,31.20
2023-02-23T22:43:55.783Z,30.00
2023-02-23T22:48:00.969Z,34.20
2023-02-23T22:52:03.001Z,34.00
2023-02-23T22:56:05.463Z,34.90
2023-02-23T23:00:09.615Z,28.60
2023-02-23T23:04:11.839Z,34.90
2023-02-23T23:08:13.981Z,34.30
2023-02-23T23:12:17.470Z,33.90
2023-02-23T23:16:31.838Z,29.70
2023-02-23T23:20:34.498Z,32.70
2023-02-23T23:24:36.535Z,34.30
2023-02-23T23:28:39.901Z,28.70
2023-02-23T23:32:42.285Z,29.60
2023-02-23T23:36:45.966Z,35.10
2023-02-23T23:40:47.775Z,26.60
2023-02-23T23:44:50.256Z,29.90
2023-02-23T23:48:53.925Z,30.40
2023-02-23T23:52:56.423Z,29.50
2023-02-23T23:57:02.912Z,32.20
